Melrose, United Kingdom
Current Conditions -  °F | °C
As of 1:20 AM on Saturday 29 Nov 2014 (Local Time) from EGPH Reporting Station
Overcast Overcast  
Wind Chill: 44°   Ceiling: 1000
Heat Index: 48°   Visibility: 6mi
Dew Point: 46°   Wind: 10mph
Humidity: 93%   Direction: 90°E
Pressure: 29.88"   Gusts: NA
Location:  55.6°N, 2.73°W
Report Text: EGPH 290120Z 09009KT 9999 OVC010 09/08 Q1012
Loading
Personal Weather Stations






























Interactive Weather Map New forecast layout! Learn more

10-Day Weather Forecast

Advertisements
Track Severe Weather on mobile